createdAt,value
2022-11-04T00:00:06.449Z,92.76
2022-11-04T00:01:06.380Z,92.76
2022-11-04T00:02:06.437Z,92.71
2022-11-04T00:03:07.499Z,92.71
2022-11-04T00:04:06.329Z,92.61
2022-11-04T00:05:06.293Z,92.71
2022-11-04T00:06:06.318Z,92.71
2022-11-04T00:07:06.302Z,92.71
2022-11-04T00:08:06.274Z,92.71
2022-11-04T00:09:06.255Z,92.61
2022-11-04T00:10:06.274Z,92.71
2022-11-04T00:11:06.249Z,92.61
2022-11-04T00:12:06.220Z,92.61
2022-11-04T00:13:06.627Z,92.61
2022-11-04T00:14:06.201Z,92.61
2022-11-04T00:15:06.226Z,92.71
2022-11-04T00:16:06.177Z,92.71
2022-11-04T00:17:06.158Z,92.71
2022-11-04T00:18:06.159Z,92.81
2022-11-04T00:19:06.134Z,92.81
2022-11-04T00:20:06.170Z,92.81
2022-11-04T00:21:06.125Z,92.81
2022-11-04T00:22:07.070Z,92.71
2022-11-04T00:23:06.542Z,92.71
2022-11-04T00:24:06.097Z,92.71
2022-11-04T00:25:06.089Z,92.81
2022-11-04T00:26:06.109Z,92.71
2022-11-04T00:27:06.053Z,92.81
2022-11-04T00:28:06.439Z,93.02
2022-11-04T00:29:06.028Z,93.12
2022-11-04T00:30:06.016Z,93.22
2022-11-04T00:31:06.018Z,93.32
2022-11-04T00:32:05.987Z,93.43
2022-11-04T00:33:05.998Z,93.43
2022-11-04T00:34:05.984Z,93.73
2022-11-04T00:35:05.963Z,93.73
2022-11-04T00:36:05.981Z,93.84
2022-11-04T00:37:06.036Z,93.73
2022-11-04T00:38:06.437Z,93.84
2022-11-04T00:39:05.935Z,93.84
2022-11-04T00:40:05.924Z,94.04
2022-11-04T00:41:05.902Z,94.04
2022-11-04T00:42:05.886Z,94.04
2022-11-04T00:43:05.888Z,94.24
2022-11-04T00:44:05.875Z,94.34
2022-11-04T00:45:05.865Z,94.45
2022-11-04T00:46:05.841Z,94.45
2022-11-04T00:47:05.848Z,94.45
2022-11-04T00:48:06.151Z,94.45
2022-11-04T00:49:05.801Z,94.45
2022-11-04T00:50:05.797Z,94.45
2022-11-04T00:51:05.820Z,94.45
2022-11-04T00:52:06.714Z,94.24
2022-11-04T00:53:06.013Z,94.14
2022-11-04T00:54:05.741Z,94.14
2022-11-04T00:55:05.755Z,94.04
2022-11-04T00:56:05.714Z,94.14
2022-11-04T00:57:05.733Z,94.04
2022-11-04T00:58:05.709Z,93.93
2022-11-04T00:59:09.034Z,93.93
2022-11-04T01:00:05.689Z,93.84
2022-11-04T01:01:05.691Z,93.63
2022-11-04T01:02:05.769Z,93.52
2022-11-04T01:03:06.037Z,93.43
2022-11-04T01:04:05.627Z,93.43
2022-11-04T01:05:05.621Z,93.32
2022-11-04T01:06:05.607Z,93.22
2022-11-04T01:07:05.668Z,93.32
2022-11-04T01:08:05.589Z,93.12
2022-11-04T01:09:05.581Z,92.91
2022-11-04T01:10:05.560Z,92.81
2022-11-04T01:11:05.549Z,92.71
2022-11-04T01:12:05.557Z,92.71
2022-11-04T01:13:05.900Z,92.61
2022-11-04T01:14:05.512Z,92.61
2022-11-04T01:15:05.514Z,92.30
2022-11-04T01:16:05.508Z,92.20
2022-11-04T01:17:05.487Z,92.00
2022-11-04T01:18:05.779Z,91.79
2022-11-04T01:19:05.486Z,91.49
2022-11-04T01:20:05.452Z,91.28
2022-11-04T01:21:05.438Z,91.28
2022-11-04T01:22:05.428Z,91.28
2022-11-04T01:23:05.421Z,91.18
2022-11-04T01:24:05.426Z,91.18
2022-11-04T01:25:05.410Z,91.18
2022-11-04T01:26:05.389Z,91.08
2022-11-04T01:27:05.371Z,91.08
2022-11-04T01:28:05.567Z,91.08
2022-11-04T01:29:05.365Z,91.08
2022-11-04T01:30:05.367Z,90.98
2022-11-04T01:31:05.331Z,91.08
2022-11-04T01:32:05.326Z,91.08
2022-11-04T01:33:05.327Z,90.77
2022-11-04T01:34:07.247Z,90.88
2022-11-04T01:35:05.289Z,90.88
2022-11-04T01:36:05.277Z,90.77
2022-11-04T01:37:05.309Z,90.77
2022-11-04T01:38:05.496Z,90.67
2022-11-04T01:39:05.245Z,90.88
2022-11-04T01:40:05.235Z,90.67
2022-11-04T01:41:05.240Z,90.77
2022-11-04T01:42:05.210Z,90.57
2022-11-04T01:43:05.376Z,90.47
2022-11-04T01:44:05.181Z,90.26
2022-11-04T01:45:05.171Z,90.36
2022-11-04T01:46:05.163Z,90.47
2022-11-04T01:47:05.151Z,90.47
2022-11-04T01:48:05.153Z,90.57
2022-11-04T01:49:05.142Z,90.57
2022-11-04T01:50:05.123Z,90.67
2022-11-04T01:51:05.103Z,90.67
2022-11-04T01:52:05.096Z,90.57
2022-11-04T01:53:05.270Z,90.36
2022-11-04T01:54:05.073Z,90.36
2022-11-04T01:55:05.064Z,90.47
2022-11-04T01:56:05.076Z,90.36
2022-11-04T01:57:05.046Z,90.36
2022-11-04T01:58:05.059Z,90.36
2022-11-04T01:59:05.033Z,90.26
2022-11-04T02:00:05.015Z,90.36
2022-11-04T02:01:06.040Z,90.31
2022-11-04T02:02:05.123Z,90.16
2022-11-04T02:03:05.014Z,89.96
2022-11-04T02:04:04.976Z,89.86
2022-11-04T02:05:05.034Z,89.79
2022-11-04T02:06:04.938Z,89.55
2022-11-04T02:07:04.936Z,89.34
2022-11-04T02:08:04.929Z,89.25
2022-11-04T02:09:04.957Z,89.25
2022-11-04T02:10:04.900Z,89.14
2022-11-04T02:11:04.923Z,88.93
2022-11-04T02:12:04.889Z,88.93
2022-11-04T02:13:04.890Z,88.84
2022-11-04T02:14:04.879Z,88.43
2022-11-04T02:15:04.864Z,88.47
2022-11-04T02:16:04.827Z,88.26
2022-11-04T02:17:04.820Z,88.26
2022-11-04T02:18:04.804Z,88.06
2022-11-04T02:19:04.814Z,87.65
2022-11-04T02:20:04.817Z,87.04
2022-11-04T02:21:04.772Z,86.53
2022-11-04T02:22:04.777Z,86.73
2022-11-04T02:23:04.792Z,86.73
2022-11-04T02:24:04.745Z,86.53
2022-11-04T02:25:04.736Z,86.33
2022-11-04T02:26:04.722Z,85.88
2022-11-04T02:27:04.703Z,85.82
2022-11-04T02:28:04.716Z,84.80
2022-11-04T02:29:04.704Z,84.80
2022-11-04T02:30:04.683Z,83.87
2022-11-04T02:31:04.693Z,83.16
2022-11-04T02:32:04.659Z,83.06
2022-11-04T02:33:04.647Z,82.65
2022-11-04T02:34:04.663Z,82.24
2022-11-04T02:35:04.623Z,81.63
2022-11-04T02:36:04.609Z,80.51
2022-11-04T02:37:04.601Z,80.20
2022-11-04T02:38:04.577Z,80.30
2022-11-04T02:39:04.589Z,80.51
2022-11-04T02:40:05.530Z,80.10
2022-11-04T02:41:04.561Z,79.49
2022-11-04T02:42:04.545Z,79.08
2022-11-04T02:43:04.550Z,79.39
2022-11-04T02:44:04.557Z,79.69
2022-11-04T02:45:04.510Z,79.49
2022-11-04T02:46:04.489Z,78.67
2022-11-04T02:47:04.494Z,79.08
2022-11-04T02:48:04.500Z,79.49
2022-11-04T02:49:04.470Z,79.69
2022-11-04T02:50:04.463Z,79.90
2022-11-04T02:51:04.442Z,79.39
2022-11-04T02:52:04.451Z,79.80
2022-11-04T02:53:04.422Z,79.39
2022-11-04T02:54:04.423Z,79.59
2022-11-04T02:55:04.402Z,80.20
2022-11-04T02:56:04.384Z,80.41
2022-11-04T02:57:04.398Z,80.41
2022-11-04T02:58:04.363Z,80.41
2022-11-04T02:59:04.354Z,80.51
2022-11-04T03:00:04.435Z,80.61
2022-11-04T03:01:04.387Z,80.71
2022-11-04T03:02:04.460Z,80.91
2022-11-04T03:03:04.321Z,80.85
2022-11-04T03:04:04.306Z,80.44
2022-11-04T03:05:05.256Z,80.44
2022-11-04T03:06:04.278Z,80.14
2022-11-04T03:07:04.302Z,80.34
2022-11-04T03:08:04.257Z,79.52
2022-11-04T03:09:04.246Z,79.52
2022-11-04T03:10:05.208Z,79.52
2022-11-04T03:11:04.239Z,79.22
2022-11-04T03:12:04.216Z,79.73
2022-11-04T03:13:04.233Z,79.63
2022-11-04T03:14:04.185Z,79.93
2022-11-04T03:15:06.144Z,79.63
2022-11-04T03:16:04.220Z,79.43
2022-11-04T03:17:04.160Z,79.73
2022-11-04T03:18:04.164Z,79.22
2022-11-04T03:19:04.140Z,79.32
2022-11-04T03:20:04.122Z,79.43
2022-11-04T03:21:04.123Z,79.43
2022-11-04T03:22:04.092Z,79.12
2022-11-04T03:23:04.092Z,78.61
2022-11-04T03:24:04.095Z,78.85
2022-11-04T03:25:04.103Z,78.13
2022-11-04T03:26:04.063Z,78.34
2022-11-04T03:27:04.055Z,78.75
2022-11-04T03:28:04.034Z,78.54
2022-11-04T03:29:04.035Z,78.75
2022-11-04T03:30:04.118Z,78.50
2022-11-04T03:31:04.014Z,78.09
2022-11-04T03:32:03.992Z,78.13
2022-11-04T03:33:03.980Z,78.09
2022-11-04T03:34:03.965Z,78.34
2022-11-04T03:35:03.965Z,78.44
2022-11-04T03:36:03.971Z,78.85
2022-11-04T03:37:03.932Z,78.54
2022-11-04T03:38:03.934Z,78.75
2022-11-04T03:39:03.910Z,78.95
2022-11-04T03:40:03.907Z,78.44
2022-11-04T03:41:03.908Z,78.23
2022-11-04T03:42:03.892Z,78.34
2022-11-04T03:43:03.876Z,78.23
2022-11-04T03:44:03.865Z,78.75
2022-11-04T03:45:04.866Z,78.78
2022-11-04T03:46:03.829Z,78.99
2022-11-04T03:47:03.839Z,78.99
2022-11-04T03:48:03.810Z,78.88
2022-11-04T03:49:03.800Z,79.29
2022-11-04T03:50:03.790Z,79.39
2022-11-04T03:51:03.784Z,79.29
2022-11-04T03:52:03.778Z,79.50
2022-11-04T03:53:03.837Z,79.60
2022-11-04T03:54:03.749Z,79.60
2022-11-04T03:55:03.732Z,79.39
2022-11-04T03:56:03.726Z,79.70
2022-11-04T03:57:03.713Z,79.39
2022-11-04T03:58:03.717Z,79.50
2022-11-04T03:59:03.691Z,79.60
2022-11-04T04:00:03.682Z,79.70
2022-11-04T04:01:03.827Z,79.50
2022-11-04T04:02:03.746Z,79.60
2022-11-04T04:03:03.657Z,79.91
2022-11-04T04:04:03.633Z,79.84
2022-11-04T04:05:03.625Z,80.15
2022-11-04T04:06:03.662Z,80.15
2022-11-04T04:07:03.603Z,80.25
2022-11-04T04:08:03.616Z,80.56
2022-11-04T04:09:03.585Z,80.46
2022-11-04T04:10:03.565Z,80.56
2022-11-04T04:11:03.578Z,80.76
2022-11-04T04:12:03.550Z,80.97
2022-11-04T04:13:03.540Z,81.07
2022-11-04T04:14:03.528Z,81.07
2022-11-04T04:15:03.517Z,81.17
2022-11-04T04:16:03.519Z,80.97
2022-11-04T04:17:03.545Z,81.31
2022-11-04T04:18:03.498Z,81.62
2022-11-04T04:19:03.485Z,81.51
2022-11-04T04:20:03.459Z,81.51
2022-11-04T04:21:03.452Z,81.62
2022-11-04T04:22:03.450Z,81.31
2022-11-04T04:23:03.443Z,81.31
2022-11-04T04:24:03.422Z,81.31
2022-11-04T04:25:03.414Z,81.24
2022-11-04T04:26:03.409Z,81.45
2022-11-04T04:27:03.412Z,81.45
2022-11-04T04:28:03.404Z,81.65
2022-11-04T04:29:03.363Z,81.76
2022-11-04T04:30:03.349Z,81.76
2022-11-04T04:31:03.347Z,81.86
2022-11-04T04:32:03.344Z,81.96
2022-11-04T04:33:03.333Z,81.65
2022-11-04T04:34:03.300Z,82.17
2022-11-04T04:35:03.283Z,82.48
2022-11-04T04:36:03.276Z,82.27
2022-11-04T04:37:03.268Z,82.48
2022-11-04T04:38:03.266Z,82.27
2022-11-04T04:39:03.261Z,82.31
2022-11-04T04:40:03.229Z,82.10
2022-11-04T04:41:03.262Z,82.10
2022-11-04T04:42:03.206Z,82.41
2022-11-04T04:43:03.204Z,82.51
2022-11-04T04:44:03.197Z,82.41
2022-11-04T04:45:03.208Z,82.71
2022-11-04T04:46:03.167Z,83.64
2022-11-04T04:47:03.158Z,83.64
2022-11-04T04:48:03.163Z,83.33
2022-11-04T04:49:03.150Z,83.33
2022-11-04T04:50:03.129Z,83.13
2022-11-04T04:51:03.135Z,83.44
2022-11-04T04:52:03.115Z,83.84
2022-11-04T04:53:03.089Z,84.09
2022-11-04T04:54:03.081Z,84.19
2022-11-04T04:55:03.059Z,84.39
2022-11-04T04:56:03.083Z,84.60
2022-11-04T04:57:03.094Z,84.80
2022-11-04T04:58:03.040Z,84.80
2022-11-04T04:59:03.013Z,84.70
2022-11-04T05:00:03.051Z,84.91
2022-11-04T05:01:04.007Z,85.31
2022-11-04T05:02:03.180Z,85.31
2022-11-04T05:03:03.042Z,85.63
2022-11-04T05:04:02.963Z,85.72
2022-11-04T05:05:02.992Z,85.83
2022-11-04T05:06:02.963Z,85.93
2022-11-04T05:07:02.943Z,85.83
2022-11-04T05:08:02.956Z,85.63
2022-11-04T05:09:02.914Z,85.56
2022-11-04T05:10:02.933Z,85.36
2022-11-04T05:11:02.892Z,85.25
2022-11-04T05:12:02.899Z,85.25
2022-11-04T05:13:02.870Z,85.25
2022-11-04T05:14:02.876Z,85.36
2022-11-04T05:15:02.872Z,85.25
2022-11-04T05:16:02.835Z,85.46
2022-11-04T05:17:02.818Z,85.56
2022-11-04T05:18:02.823Z,85.77
2022-11-04T05:19:02.820Z,85.77
2022-11-04T05:20:02.811Z,85.97
2022-11-04T05:21:02.779Z,86.07
2022-11-04T05:22:02.762Z,85.97
2022-11-04T05:23:02.764Z,85.66
2022-11-04T05:24:02.750Z,85.56
2022-11-04T05:25:02.740Z,85.77
2022-11-04T05:26:02.733Z,85.77
2022-11-04T05:27:02.715Z,85.77
2022-11-04T05:28:02.699Z,85.97
2022-11-04T05:29:02.758Z,86.28
2022-11-04T05:30:02.719Z,86.07
2022-11-04T05:31:02.673Z,85.87
2022-11-04T05:32:02.685Z,85.97
2022-11-04T05:33:04.991Z,85.97
2022-11-04T05:34:02.639Z,86.01
2022-11-04T05:35:02.612Z,86.01
2022-11-04T05:36:02.615Z,86.22
2022-11-04T05:37:02.619Z,86.42
2022-11-04T05:38:02.604Z,86.42
2022-11-04T05:39:02.573Z,86.32
2022-11-04T05:40:02.577Z,86.22
2022-11-04T05:41:02.564Z,86.32
2022-11-04T05:42:02.560Z,86.22
2022-11-04T05:43:02.552Z,86.42
2022-11-04T05:44:02.536Z,86.32
2022-11-04T05:45:02.539Z,86.42
2022-11-04T05:46:02.512Z,86.42
2022-11-04T05:47:02.490Z,86.32
2022-11-04T05:48:02.502Z,86.42
2022-11-04T05:49:02.479Z,86.22
2022-11-04T05:50:02.457Z,86.01
2022-11-04T05:51:02.463Z,86.05
2022-11-04T05:52:02.437Z,86.15
2022-11-04T05:53:02.433Z,86.15
2022-11-04T05:54:02.420Z,86.36
2022-11-04T05:55:02.396Z,86.46
2022-11-04T05:56:02.407Z,86.36
2022-11-04T05:57:02.368Z,86.57
2022-11-04T05:58:02.365Z,86.77
2022-11-04T05:59:02.347Z,86.77
2022-11-04T06:00:02.348Z,86.98
2022-11-04T06:01:02.348Z,87.18
2022-11-04T06:02:02.485Z,87.18
2022-11-04T06:03:02.369Z,87.18
2022-11-04T06:04:02.298Z,87.08
2022-11-04T06:05:02.281Z,87.08
2022-11-04T06:06:02.280Z,87.18
2022-11-04T06:07:02.288Z,87.08
2022-11-04T06:08:02.259Z,87.38
2022-11-04T06:09:02.245Z,87.38
2022-11-04T06:10:02.247Z,87.18
2022-11-04T06:11:02.218Z,87.08
2022-11-04T06:12:02.209Z,86.98
2022-11-04T06:13:02.202Z,87.08
2022-11-04T06:14:02.200Z,87.08
2022-11-04T06:15:02.170Z,86.83
2022-11-04T06:16:02.162Z,86.73
2022-11-04T06:17:02.303Z,86.42
2022-11-04T06:18:02.140Z,86.01
2022-11-04T06:19:06.052Z,85.80
2022-11-04T06:20:03.122Z,86.22
2022-11-04T06:21:02.117Z,86.22
2022-11-04T06:22:02.086Z,85.80
2022-11-04T06:23:02.095Z,86.22
2022-11-04T06:24:02.077Z,86.42
2022-11-04T06:25:02.065Z,86.01
2022-11-04T06:26:02.048Z,85.97
2022-11-04T06:27:02.051Z,86.07
2022-11-04T06:28:02.037Z,86.18
2022-11-04T06:29:02.019Z,86.28
2022-11-04T06:30:02.016Z,86.28
2022-11-04T06:31:01.988Z,86.28
2022-11-04T06:32:02.017Z,86.38
2022-11-04T06:33:01.960Z,86.69
2022-11-04T06:34:01.961Z,86.58
2022-11-04T06:35:01.954Z,86.58
2022-11-04T06:36:01.939Z,86.48
2022-11-04T06:37:01.947Z,86.48
2022-11-04T06:38:01.916Z,86.28
2022-11-04T06:39:04.881Z,86.18
2022-11-04T06:40:01.899Z,85.97
2022-11-04T06:41:01.955Z,85.77
2022-11-04T06:42:02.927Z,85.66
2022-11-04T06:43:01.852Z,85.56
2022-11-04T06:44:01.873Z,85.56
2022-11-04T06:45:01.878Z,85.46
2022-11-04T06:46:01.831Z,85.52
2022-11-04T06:47:01.841Z,85.36
2022-11-04T06:48:01.827Z,85.46
2022-11-04T06:49:01.792Z,85.56
2022-11-04T06:50:02.744Z,85.56
2022-11-04T06:51:01.770Z,85.66
2022-11-04T06:52:01.799Z,85.77
2022-11-04T06:53:01.745Z,86.28
2022-11-04T06:54:01.737Z,86.34
2022-11-04T06:55:01.725Z,86.55
2022-11-04T06:56:01.717Z,86.55
2022-11-04T06:57:01.731Z,86.55
2022-11-04T06:58:01.698Z,86.44
2022-11-04T06:59:01.682Z,86.65
2022-11-04T07:00:01.684Z,87.06
2022-11-04T07:01:03.105Z,87.16
2022-11-04T07:02:01.831Z,87.26
2022-11-04T07:03:01.660Z,87.37
2022-11-04T07:04:01.637Z,87.26
2022-11-04T07:05:01.646Z,87.26
2022-11-04T07:06:01.600Z,87.16
2022-11-04T07:07:01.589Z,87.06
2022-11-04T07:08:01.603Z,86.96
2022-11-04T07:09:01.581Z,86.96
2022-11-04T07:10:01.585Z,86.85
2022-11-04T07:11:01.552Z,86.75
2022-11-04T07:12:01.574Z,86.44
2022-11-04T07:13:01.558Z,86.24
2022-11-04T07:14:01.537Z,86.14
2022-11-04T07:15:01.502Z,86.14
2022-11-04T07:16:01.520Z,86.14
2022-11-04T07:17:01.503Z,86.14
2022-11-04T07:18:01.487Z,86.14
2022-11-04T07:19:01.482Z,86.14
2022-11-04T07:20:01.444Z,86.24
2022-11-04T07:21:05.691Z,86.34
2022-11-04T07:22:02.453Z,86.34
2022-11-04T07:23:01.427Z,86.14
2022-11-04T07:24:01.421Z,86.24
2022-11-04T07:25:01.386Z,86.24
2022-11-04T07:26:01.383Z,86.24
2022-11-04T07:28:02.555Z,86.30
2022-11-04T07:29:01.399Z,85.99
2022-11-04T07:30:01.338Z,86.30
2022-11-04T07:31:01.329Z,86.40
2022-11-04T07:32:01.317Z,86.10
2022-11-04T07:33:01.310Z,85.89
2022-11-04T07:34:01.309Z,85.99
2022-11-04T07:35:01.290Z,85.79
2022-11-04T07:36:01.273Z,84.97
2022-11-04T07:37:01.254Z,84.56
2022-11-04T07:38:01.269Z,84.36
2022-11-04T07:39:01.230Z,84.36
2022-11-04T07:40:01.227Z,84.01
2022-11-04T07:41:01.210Z,83.70
2022-11-04T07:42:01.239Z,83.70
2022-11-04T07:43:01.205Z,83.70
2022-11-04T07:44:01.281Z,83.60
2022-11-04T07:45:01.202Z,83.70
2022-11-04T07:46:01.158Z,83.70
2022-11-04T07:47:01.164Z,83.50
2022-11-04T07:48:01.144Z,83.39
2022-11-04T07:49:01.148Z,83.70
2022-11-04T07:50:04.056Z,83.50
2022-11-04T07:51:02.123Z,83.50
2022-11-04T07:52:01.114Z,83.50
2022-11-04T07:53:01.078Z,83.60
2022-11-04T07:54:02.043Z,83.39
2022-11-04T07:55:01.068Z,83.39
2022-11-04T07:56:01.035Z,83.46
2022-11-04T07:57:01.052Z,83.39
2022-11-04T07:58:01.036Z,83.25
2022-11-04T07:59:01.040Z,83.36
2022-11-04T08:00:01.005Z,83.09
2022-11-04T08:01:00.998Z,82.89
2022-11-04T08:02:01.209Z,82.89
2022-11-04T08:03:01.026Z,82.89
2022-11-04T08:04:00.984Z,82.89
2022-11-04T08:05:00.947Z,83.19
2022-11-04T08:06:00.959Z,83.50
2022-11-04T08:07:00.928Z,83.60
2022-11-04T08:08:00.921Z,83.70
2022-11-04T08:09:00.984Z,83.66
2022-11-04T08:10:00.915Z,83.15
2022-11-04T08:11:00.901Z,82.95
2022-11-04T08:12:00.888Z,83.05
2022-11-04T08:13:00.852Z,83.05
2022-11-04T08:14:00.850Z,83.05
2022-11-04T08:15:00.903Z,83.15
2022-11-04T08:16:00.826Z,83.25
2022-11-04T08:17:00.838Z,83.25
2022-11-04T08:18:00.825Z,83.25
2022-11-04T08:19:00.791Z,83.36
2022-11-04T08:20:00.803Z,83.25
2022-11-04T08:21:00.772Z,83.15
2022-11-04T08:22:00.760Z,83.25
2022-11-04T08:23:00.746Z,83.36
2022-11-04T08:24:00.739Z,83.46
2022-11-04T08:25:00.733Z,83.46
2022-11-04T08:26:00.716Z,83.25
2022-11-04T08:27:00.724Z,83.05
2022-11-04T08:28:01.357Z,82.95
2022-11-04T08:29:00.679Z,83.05
2022-11-04T08:30:00.668Z,83.15
2022-11-04T08:31:00.647Z,83.46
2022-11-04T08:32:00.645Z,83.46
2022-11-04T08:33:00.651Z,83.25
2022-11-04T08:34:00.659Z,83.11
2022-11-04T08:35:00.635Z,82.91
2022-11-04T08:36:00.606Z,82.81
2022-11-04T08:37:00.599Z,82.60
2022-11-04T08:38:00.580Z,82.50
2022-11-04T08:39:04.462Z,82.50
2022-11-04T08:40:01.581Z,82.29
2022-11-04T08:41:00.679Z,82.09
2022-11-04T08:42:01.112Z,81.99
2022-11-04T08:43:00.523Z,81.88
2022-11-04T08:44:00.519Z,81.79
2022-11-04T08:45:00.512Z,81.88
2022-11-04T08:46:00.534Z,81.88
2022-11-04T08:47:00.481Z,82.20
2022-11-04T08:48:05.292Z,82.29
2022-11-04T08:49:04.552Z,82.40
2022-11-04T08:50:01.466Z,82.60
2022-11-04T08:51:00.454Z,82.91
2022-11-04T08:52:00.445Z,83.22
2022-11-04T08:53:00.416Z,83.22
2022-11-04T08:54:00.437Z,83.42
2022-11-04T08:55:00.394Z,83.62
2022-11-04T08:56:00.393Z,83.83
2022-11-04T08:57:00.394Z,83.83
2022-11-04T08:58:00.360Z,84.03
2022-11-04T08:59:00.345Z,84.09
2022-11-04T09:00:00.345Z,84.14
2022-11-04T09:01:00.314Z,84.20
2022-11-04T09:02:00.446Z,84.20
2022-11-04T09:03:00.296Z,84.30
2022-11-04T09:04:00.376Z,84.41
2022-11-04T09:05:00.288Z,84.41
2022-11-04T09:06:00.277Z,84.41
2022-11-04T09:07:05.194Z,84.41
2022-11-04T09:08:01.259Z,84.20
2022-11-04T09:09:00.248Z,84.09
2022-11-04T09:10:00.227Z,83.79
2022-11-04T09:11:00.249Z,83.48
2022-11-04T09:12:00.199Z,83.38
2022-11-04T09:13:00.197Z,83.28
2022-11-04T09:14:00.180Z,83.28
2022-11-04T09:15:00.179Z,83.24
2022-11-04T09:16:00.161Z,83.24
2022-11-04T09:17:00.160Z,83.14
2022-11-04T09:18:00.134Z,82.93
2022-11-04T09:19:00.142Z,82.73
2022-11-04T09:20:00.112Z,82.83
2022-11-04T09:21:00.112Z,82.83
2022-11-04T09:22:00.094Z,82.83
2022-11-04T09:23:00.093Z,82.73
2022-11-04T09:24:00.094Z,82.69
2022-11-04T09:25:00.076Z,82.49
2022-11-04T09:26:00.067Z,82.59
2022-11-04T09:27:00.050Z,82.49
2022-11-04T09:28:00.036Z,82.39
2022-11-04T09:29:00.030Z,82.39
2022-11-04T09:30:00.009Z,82.28
2022-11-04T09:30:59.996Z,81.57
2022-11-04T09:32:00.002Z,81.57
2022-11-04T09:32:59.988Z,81.43
2022-11-04T09:33:59.957Z,81.32
2022-11-04T09:34:59.950Z,81.23
2022-11-04T09:35:59.947Z,80.91
2022-11-04T09:36:59.931Z,80.91
2022-11-04T09:37:59.915Z,81.02
2022-11-04T09:38:59.902Z,80.61
2022-11-04T09:39:59.912Z,80.51
2022-11-04T09:40:59.899Z,80.30
2022-11-04T09:41:59.869Z,80.10
2022-11-04T09:42:59.868Z,80.20
2022-11-04T09:43:59.860Z,79.96
2022-11-04T09:45:20.593Z,79.75
2022-11-04T09:46:00.831Z,79.86
2022-11-04T09:46:59.834Z,79.75
2022-11-04T09:47:59.809Z,79.66
2022-11-04T09:48:59.791Z,79.55
2022-11-04T09:49:59.780Z,79.35
2022-11-04T09:50:59.829Z,78.94
2022-11-04T09:51:59.767Z,79.00
2022-11-04T09:52:59.764Z,79.00
2022-11-04T09:53:59.738Z,78.91
2022-11-04T09:54:59.725Z,78.19
2022-11-04T09:55:59.733Z,78.19
2022-11-04T09:56:59.712Z,78.39
2022-11-04T09:57:59.752Z,78.91
2022-11-04T09:58:59.684Z,78.70
2022-11-04T09:59:59.677Z,78.39
2022-11-04T10:00:59.736Z,78.05
2022-11-04T10:01:59.757Z,77.75
2022-11-04T10:02:59.647Z,77.34
2022-11-04T10:03:59.646Z,77.03
2022-11-04T10:04:59.616Z,77.14
2022-11-04T10:05:59.645Z,76.49
2022-11-04T10:06:59.608Z,75.67
2022-11-04T10:07:59.587Z,75.88
2022-11-04T10:08:59.577Z,75.47
2022-11-04T10:09:59.569Z,75.16
2022-11-04T10:10:59.590Z,75.06
2022-11-04T10:11:59.544Z,74.96
2022-11-04T10:12:59.547Z,74.55
2022-11-04T10:13:59.521Z,74.15
2022-11-04T10:14:59.518Z,73.84
2022-11-04T10:15:59.500Z,73.94
2022-11-04T10:16:59.515Z,74.04
2022-11-04T10:17:59.474Z,73.84
2022-11-04T10:18:59.455Z,73.74
2022-11-04T10:19:59.461Z,73.84
2022-11-04T10:20:59.457Z,74.04
2022-11-04T10:21:59.438Z,73.84
2022-11-04T10:22:59.442Z,73.84
2022-11-04T10:23:59.405Z,74.04
2022-11-04T10:24:59.432Z,74.04
2022-11-04T10:25:59.389Z,73.94
2022-11-04T10:27:00.918Z,73.43
2022-11-04T10:27:59.395Z,72.92
2022-11-04T10:28:59.354Z,72.92
2022-11-04T10:29:59.431Z,73.13
2022-11-04T10:30:59.345Z,73.33
2022-11-04T10:31:59.330Z,73.33
2022-11-04T10:32:59.315Z,72.72
2022-11-04T10:33:59.296Z,72.52
2022-11-04T10:34:59.294Z,72.11
2022-11-04T10:35:59.287Z,72.11
2022-11-04T10:36:59.272Z,71.70
2022-11-04T10:37:59.262Z,72.21
2022-11-04T10:38:59.258Z,72.52
2022-11-04T10:40:00.205Z,73.02
2022-11-04T10:41:04.388Z,72.92
2022-11-04T10:42:00.221Z,72.62
2022-11-04T10:42:59.209Z,72.21
2022-11-04T10:43:59.191Z,72.38
2022-11-04T10:44:59.176Z,71.77
2022-11-04T10:45:59.167Z,71.70
2022-11-04T10:46:59.190Z,72.01
2022-11-04T10:47:59.145Z,71.80
2022-11-04T10:48:59.131Z,72.11
2022-11-04T10:50:27.032Z,71.91
2022-11-04T10:51:00.126Z,72.21
2022-11-04T10:51:59.092Z,72.17
2022-11-04T10:52:59.091Z,71.67
2022-11-04T10:53:59.073Z,71.47
2022-11-04T10:54:59.092Z,71.77
2022-11-04T10:55:59.055Z,71.97
2022-11-04T10:56:59.070Z,71.77
2022-11-04T10:57:59.039Z,71.67
2022-11-04T10:58:59.018Z,71.97
2022-11-04T10:59:59.021Z,72.17
2022-11-04T11:00:59.120Z,71.56
2022-11-04T11:01:59.119Z,71.77
2022-11-04T11:02:58.988Z,71.67
2022-11-04T11:03:58.969Z,71.73
2022-11-04T11:04:58.977Z,71.64
2022-11-04T11:05:58.957Z,71.73
2022-11-04T11:06:58.960Z,71.94
2022-11-04T11:07:58.943Z,71.94
2022-11-04T11:08:58.907Z,71.64
2022-11-04T11:09:58.896Z,71.12
2022-11-04T11:10:58.900Z,71.02
2022-11-04T11:11:58.901Z,71.02
2022-11-04T11:12:58.870Z,70.72
2022-11-04T11:13:58.869Z,70.72
2022-11-04T11:14:58.847Z,70.82
2022-11-04T11:15:58.835Z,71.19
2022-11-04T11:16:58.820Z,71.19
2022-11-04T11:17:58.822Z,71.09
2022-11-04T11:18:58.790Z,71.30
2022-11-04T11:19:58.784Z,71.30
2022-11-04T11:20:58.781Z,71.09
2022-11-04T11:21:58.766Z,70.79
2022-11-04T11:23:04.462Z,70.38
2022-11-04T11:23:59.746Z,70.18
2022-11-04T11:24:58.742Z,70.18
2022-11-04T11:25:58.721Z,69.97
2022-11-04T11:26:58.724Z,69.77
2022-11-04T11:27:58.714Z,70.18
2022-11-04T11:28:59.516Z,69.46
2022-11-04T11:29:58.679Z,69.46
2022-11-04T11:30:58.690Z,69.77
2022-11-04T11:31:58.673Z,69.67
2022-11-04T11:32:58.647Z,69.57
2022-11-04T11:33:58.644Z,69.26
2022-11-04T11:34:58.621Z,68.85
2022-11-04T11:35:58.628Z,69.06
2022-11-04T11:36:59.570Z,69.16
2022-11-04T11:37:58.579Z,69.36
2022-11-04T11:38:58.594Z,69.23
2022-11-04T11:39:59.517Z,69.23
2022-11-04T11:41:23.348Z,69.43
2022-11-04T11:41:59.568Z,69.53
2022-11-04T11:42:58.539Z,69.64
2022-11-04T11:43:58.524Z,69.74
2022-11-04T11:44:58.517Z,69.77
2022-11-04T11:45:58.492Z,70.38
2022-11-04T11:46:58.514Z,70.58
2022-11-04T11:47:58.470Z,70.38
2022-11-04T11:48:58.460Z,70.38
2022-11-04T11:49:58.469Z,70.38
2022-11-04T11:50:58.482Z,70.14
2022-11-04T11:51:58.434Z,69.43
2022-11-04T11:52:58.432Z,69.23
2022-11-04T11:53:58.403Z,68.72
2022-11-04T11:54:58.418Z,68.62
2022-11-04T11:55:58.384Z,68.62
2022-11-04T11:57:13.168Z,68.41
2022-11-04T12:01:04.752Z,69.43
2022-11-04T12:01:59.475Z,69.43
2022-11-04T12:02:58.562Z,69.53
2022-11-04T12:09:59.227Z,67.97
2022-11-04T12:10:58.236Z,67.74
2022-11-04T12:11:58.202Z,67.44
2022-11-04T12:12:58.189Z,67.13
2022-11-04T12:13:58.191Z,67.44
2022-11-04T12:14:58.214Z,67.84
2022-11-04T12:15:58.181Z,67.64
2022-11-04T12:16:58.146Z,67.54
2022-11-04T12:17:58.153Z,67.47
2022-11-04T12:18:58.153Z,67.77
2022-11-04T12:19:58.128Z,67.57
2022-11-04T12:20:58.126Z,67.47
2022-11-04T12:21:58.124Z,67.67
2022-11-04T12:22:58.091Z,67.10
2022-11-04T12:23:58.072Z,67.71
2022-11-04T12:24:58.064Z,67.50
2022-11-04T12:25:59.002Z,67.80
2022-11-04T12:26:58.055Z,67.80
2022-11-04T12:27:58.045Z,68.21
2022-11-04T12:28:58.051Z,67.91
2022-11-04T12:29:58.964Z,68.01
2022-11-04T12:30:58.009Z,68.44
2022-11-04T12:31:58.013Z,68.75
2022-11-04T12:32:57.976Z,68.96
2022-11-04T12:33:57.960Z,68.96
2022-11-04T12:34:57.973Z,68.96
2022-11-04T12:35:57.956Z,68.85
2022-11-04T12:36:57.950Z,68.85
2022-11-04T12:37:57.923Z,69.16
2022-11-04T12:38:57.915Z,69.36
2022-11-04T12:39:57.902Z,69.36
2022-11-04T12:41:27.710Z,69.36
2022-11-04T12:42:19.979Z,69.46
2022-11-04T12:42:58.930Z,69.36
2022-11-04T12:43:57.859Z,69.36
2022-11-04T12:44:57.839Z,69.16
2022-11-04T12:45:57.829Z,69.16
2022-11-04T12:46:57.850Z,69.36
2022-11-04T12:47:57.817Z,69.57
2022-11-04T12:49:00.749Z,69.57
2022-11-04T12:49:58.781Z,69.36
2022-11-04T12:50:57.772Z,69.36
2022-11-04T12:51:57.789Z,69.36
2022-11-04T12:52:57.764Z,69.16
2022-11-04T12:53:57.782Z,68.96
2022-11-04T12:54:57.733Z,69.46
2022-11-04T12:55:57.719Z,69.46
2022-11-04T12:56:57.715Z,69.67
2022-11-04T12:57:57.724Z,69.46
2022-11-04T12:58:57.693Z,69.67
2022-11-04T12:59:58.567Z,69.67
2022-11-04T13:00:59.750Z,69.67
2022-11-04T13:01:57.804Z,69.97